createdAt,value
2023-09-26T00:00:24.682Z,13.20
2023-09-26T00:05:26.099Z,13.16
2023-09-26T00:10:27.349Z,13.14
2023-09-26T00:15:28.541Z,13.11
2023-09-26T00:20:31.534Z,13.03
2023-09-26T00:25:32.710Z,12.97
2023-09-26T00:30:33.911Z,12.92
2023-09-26T00:35:35.263Z,12.89
2023-09-26T00:40:36.442Z,12.90
2023-09-26T00:45:37.938Z,12.89
2023-09-26T00:50:39.106Z,12.83
2023-09-26T00:55:40.281Z,12.77
2023-09-26T01:00:41.466Z,12.76
2023-09-26T01:05:42.632Z,12.66
2023-09-26T01:10:43.809Z,12.59
2023-09-26T01:15:45.119Z,12.56
2023-09-26T01:20:46.372Z,12.53
2023-09-26T01:25:47.541Z,12.55
2023-09-26T01:30:49.499Z,12.34
2023-09-26T01:35:52.550Z,12.46
2023-09-26T01:40:53.777Z,12.44
2023-09-26T01:45:55.756Z,12.39
2023-09-26T01:50:57.363Z,12.34
2023-09-26T01:55:58.538Z,12.32
2023-09-26T02:00:59.748Z,12.30
2023-09-26T02:06:01.168Z,12.26
2023-09-26T02:11:02.422Z,12.24
2023-09-26T02:16:04.945Z,12.24
2023-09-26T02:21:06.214Z,12.26
2023-09-26T02:26:07.377Z,12.23
2023-09-26T02:31:08.600Z,12.19
2023-09-26T02:36:09.833Z,12.11
2023-09-26T02:41:11.186Z,12.04
2023-09-26T02:46:12.408Z,11.98
2023-09-26T02:51:13.636Z,11.88
2023-09-26T02:56:14.799Z,11.85
2023-09-26T03:01:16.276Z,11.79
2023-09-26T03:06:17.626Z,11.75
2023-09-26T03:11:18.830Z,11.72
2023-09-26T03:16:20.182Z,11.67
2023-09-26T03:21:21.570Z,11.62
2023-09-26T03:26:22.793Z,11.62
2023-09-26T03:31:24.109Z,11.58
2023-09-26T03:36:25.571Z,11.54
2023-09-26T03:41:26.777Z,11.50
2023-09-26T03:46:28.066Z,11.50
2023-09-26T03:51:29.625Z,11.51
2023-09-26T03:56:30.801Z,11.46
2023-09-26T04:01:32.149Z,11.46
2023-09-26T04:06:33.636Z,11.46
2023-09-26T04:11:34.867Z,11.48
2023-09-26T04:16:36.206Z,11.51
2023-09-26T04:21:37.416Z,11.53
2023-09-26T04:26:38.604Z,11.49
2023-09-26T04:31:39.858Z,11.44
2023-09-26T04:36:41.126Z,11.38
2023-09-26T04:41:42.369Z,11.33
2023-09-26T04:46:43.768Z,11.25
2023-09-26T04:51:45.062Z,11.19
2023-09-26T04:56:46.871Z,11.13
2023-09-26T05:01:48.945Z,11.12
2023-09-26T05:06:50.136Z,11.11
2023-09-26T05:11:51.328Z,11.14
2023-09-26T05:16:52.570Z,11.19
2023-09-26T05:21:53.781Z,11.21
2023-09-26T05:26:54.994Z,11.13
2023-09-26T05:31:56.266Z,11.07
2023-09-26T05:36:57.605Z,11.00
2023-09-26T05:41:58.933Z,11.00
2023-09-26T05:47:00.479Z,10.99
2023-09-26T05:52:01.754Z,10.95
2023-09-26T05:57:04.271Z,10.90
2023-09-26T06:02:05.694Z,10.85
2023-09-26T06:07:07.022Z,10.78
2023-09-26T06:12:08.312Z,10.74
2023-09-26T06:17:09.581Z,10.73
2023-09-26T06:22:10.835Z,10.76
2023-09-26T06:27:12.259Z,10.82
2023-09-26T06:32:13.547Z,10.92
2023-09-26T06:37:14.772Z,11.01
2023-09-26T06:42:15.970Z,11.13
2023-09-26T06:47:18.914Z,11.22
2023-09-26T06:52:20.246Z,11.30
2023-09-26T06:57:27.514Z,11.34
2023-09-26T07:02:28.804Z,11.39
2023-09-26T07:07:32.783Z,11.45
2023-09-26T07:12:33.960Z,11.57
2023-09-26T07:17:37.962Z,11.77
2023-09-26T07:22:40.889Z,12.01
2023-09-26T07:27:43.785Z,12.29
2023-09-26T07:32:46.133Z,12.41
2023-09-26T07:37:47.371Z,12.58
2023-09-26T07:42:48.674Z,12.83
2023-09-26T07:47:49.924Z,13.07
2023-09-26T07:52:51.283Z,13.36
2023-09-26T07:57:52.508Z,13.62
2023-09-26T08:02:53.832Z,13.86
2023-09-26T08:07:55.093Z,14.11
2023-09-26T08:12:56.327Z,14.35
2023-09-26T08:17:57.578Z,14.56
2023-09-26T08:22:58.850Z,14.71
2023-09-26T08:28:00.629Z,14.99
2023-09-26T08:33:02.077Z,15.40
2023-09-26T08:38:03.375Z,15.91
2023-09-26T08:43:05.278Z,16.38
2023-09-26T08:48:06.506Z,16.90
2023-09-26T08:53:07.740Z,17.36
2023-09-26T08:58:08.978Z,17.85
2023-09-26T09:03:12.313Z,18.20
2023-09-26T09:08:14.904Z,18.58
2023-09-26T09:13:16.187Z,19.00
2023-09-26T09:18:17.461Z,19.46
2023-09-26T09:23:18.721Z,20.14
2023-09-26T09:28:20.584Z,20.84
2023-09-26T09:33:21.781Z,21.50
2023-09-26T09:38:22.940Z,22.07
2023-09-26T09:43:26.330Z,22.76
2023-09-26T09:48:27.535Z,23.48
2023-09-26T09:53:29.699Z,24.09
2023-09-26T09:58:30.994Z,24.67
2023-09-26T10:03:34.717Z,25.18
2023-09-26T10:08:35.936Z,25.79
2023-09-26T10:13:37.356Z,26.21
2023-09-26T10:18:38.722Z,26.48
2023-09-26T10:23:39.970Z,26.65
2023-09-26T10:28:41.209Z,27.21
2023-09-26T10:33:42.445Z,27.38
2023-09-26T10:38:43.799Z,27.80
2023-09-26T10:49:06.351Z,28.18
2023-09-26T10:54:07.693Z,28.29
2023-09-26T10:59:08.879Z,28.40
2023-09-26T11:04:10.230Z,28.46
2023-09-26T11:09:13.111Z,28.69
2023-09-26T11:14:14.505Z,28.28
2023-09-26T11:19:15.856Z,28.39
2023-09-26T11:24:17.059Z,28.18
2023-09-26T11:29:18.610Z,27.56
2023-09-26T11:34:19.789Z,27.41
2023-09-26T11:39:22.044Z,27.28
2023-09-26T11:44:23.329Z,27.25
2023-09-26T11:49:24.510Z,27.46
2023-09-26T11:54:26.082Z,27.48
2023-09-26T11:59:27.293Z,27.25
2023-09-26T12:04:29.813Z,27.28
2023-09-26T12:09:31.204Z,26.98
2023-09-26T12:14:32.496Z,26.91
2023-09-26T12:19:33.766Z,26.65
2023-09-26T12:24:35.016Z,26.29
2023-09-26T12:29:36.504Z,26.13
2023-09-26T12:34:37.730Z,25.76
2023-09-26T12:39:38.945Z,25.49
2023-09-26T12:44:42.066Z,25.22
2023-09-26T12:49:44.373Z,25.22
2023-09-26T12:54:46.081Z,25.33
2023-09-26T12:59:47.282Z,25.76
2023-09-26T13:04:48.482Z,26.05
2023-09-26T13:09:49.785Z,26.01
2023-09-26T13:14:50.962Z,26.11
2023-09-26T13:19:52.218Z,26.38
2023-09-26T13:24:53.450Z,26.37
2023-09-26T13:29:54.695Z,26.18
2023-09-26T13:34:56.135Z,25.90
2023-09-26T13:39:57.384Z,25.80
2023-09-26T13:44:58.588Z,25.86
2023-09-26T13:49:59.867Z,25.77
2023-09-26T13:55:01.383Z,25.63
2023-09-26T14:00:02.693Z,25.44
2023-09-26T14:05:20.045Z,25.25
2023-09-26T14:10:22.717Z,25.04
2023-09-26T14:15:24.429Z,24.91
2023-09-26T14:20:25.990Z,24.99
2023-09-26T14:25:27.461Z,24.98
2023-09-26T14:30:28.664Z,24.74
2023-09-26T14:35:29.932Z,24.49
2023-09-26T14:40:31.132Z,24.39
2023-09-26T14:45:39.737Z,24.25
2023-09-26T14:50:44.750Z,24.18
2023-09-26T14:55:46.017Z,23.94
2023-09-26T15:00:50.521Z,23.81
2023-09-26T15:05:51.875Z,23.71
2023-09-26T15:10:53.146Z,23.51
2023-09-26T15:15:54.430Z,23.34
2023-09-26T15:20:55.633Z,23.15
2023-09-26T15:25:57.555Z,23.00
2023-09-26T15:30:58.943Z,22.93
2023-09-26T15:36:01.380Z,22.78
2023-09-26T15:41:02.583Z,22.60
2023-09-26T15:46:03.819Z,22.53
2023-09-26T15:51:11.613Z,22.38
2023-09-26T15:56:13.488Z,22.21
2023-09-26T16:01:14.861Z,22.08
2023-09-26T16:06:16.116Z,21.98
2023-09-26T16:11:17.377Z,21.78
2023-09-26T16:16:19.690Z,21.62
2023-09-26T16:21:20.947Z,21.45
2023-09-26T16:26:22.347Z,21.28
2023-09-26T16:31:23.877Z,21.12
2023-09-26T16:36:25.136Z,21.01
2023-09-26T16:41:26.354Z,20.82
2023-09-26T16:46:28.081Z,20.72
2023-09-26T16:51:29.420Z,20.55
2023-09-26T16:56:31.093Z,20.40
2023-09-26T17:01:32.382Z,20.20
2023-09-26T17:06:33.638Z,20.07
2023-09-26T17:11:34.924Z,19.91
2023-09-26T17:16:36.311Z,19.80
2023-09-26T17:21:37.649Z,19.70
2023-09-26T17:26:38.860Z,19.60
2023-09-26T17:31:40.232Z,19.50
2023-09-26T17:36:41.538Z,19.43
2023-09-26T17:41:42.771Z,19.42
2023-09-26T17:46:45.035Z,19.36
2023-09-26T17:51:46.477Z,19.30
2023-09-26T17:56:47.754Z,19.21
2023-09-26T18:01:49.069Z,19.18
2023-09-26T18:06:50.339Z,19.08
2023-09-26T18:11:51.652Z,18.97
2023-09-26T18:16:52.932Z,18.90
2023-09-26T18:21:54.186Z,18.86
2023-09-26T18:26:55.404Z,18.76
2023-09-26T18:31:56.728Z,18.72
2023-09-26T18:36:57.951Z,18.71
2023-09-26T18:41:59.125Z,18.70
2023-09-26T18:47:00.378Z,18.71
2023-09-26T18:52:01.676Z,18.64
2023-09-26T18:57:02.918Z,18.60
2023-09-26T19:02:04.745Z,18.55
2023-09-26T19:07:06.159Z,18.48
2023-09-26T19:12:07.920Z,18.45
2023-09-26T19:17:09.204Z,18.43
2023-09-26T19:22:10.525Z,18.45
2023-09-26T19:27:11.902Z,18.40
2023-09-26T19:32:13.223Z,18.22
2023-09-26T19:37:14.517Z,18.19
2023-09-26T19:42:15.794Z,18.12
2023-09-26T19:47:17.575Z,18.12
2023-09-26T19:52:18.960Z,18.13
2023-09-26T19:57:20.305Z,18.09
2023-09-26T20:02:21.713Z,18.05
2023-09-26T20:07:23.092Z,17.99
2023-09-26T20:12:24.594Z,17.95
2023-09-26T20:17:26.117Z,17.92
2023-09-26T20:22:27.463Z,17.81
2023-09-26T20:27:28.698Z,17.75
2023-09-26T20:32:30.006Z,17.71
2023-09-26T20:37:31.256Z,17.68
2023-09-26T20:42:32.545Z,17.62
2023-09-26T20:47:33.876Z,17.68
2023-09-26T20:52:35.138Z,17.59
2023-09-26T20:57:36.366Z,17.46
2023-09-26T21:02:37.848Z,17.32
2023-09-26T21:07:39.154Z,17.16
2023-09-26T21:12:40.390Z,16.96
2023-09-26T21:17:41.788Z,16.84
2023-09-26T21:22:43.133Z,16.70
2023-09-26T21:27:44.456Z,16.61
2023-09-26T21:32:45.802Z,16.58
2023-09-26T21:37:47.159Z,16.52
2023-09-26T21:42:48.561Z,16.43
2023-09-26T21:47:49.957Z,16.38
2023-09-26T21:52:51.365Z,16.29
2023-09-26T21:57:52.642Z,16.23
2023-09-26T22:02:53.971Z,16.26
2023-09-26T22:07:55.766Z,16.21
2023-09-26T22:12:57.045Z,16.20
2023-09-26T22:18:00.284Z,16.16
2023-09-26T22:23:01.615Z,16.03
2023-09-26T22:28:03.141Z,15.93
2023-09-26T22:33:04.422Z,16.02
2023-09-26T22:38:05.780Z,16.15
2023-09-26T22:43:07.087Z,15.96
2023-09-26T22:48:08.315Z,15.86
2023-09-26T22:53:09.608Z,15.72
2023-09-26T22:58:11.115Z,15.60
2023-09-26T23:03:12.600Z,15.54
2023-09-26T23:08:14.010Z,15.61
2023-09-26T23:13:15.384Z,15.73
2023-09-26T23:18:16.681Z,15.81
2023-09-26T23:23:17.973Z,15.64
2023-09-26T23:28:19.343Z,15.49
2023-09-26T23:33:20.691Z,15.48
2023-09-26T23:38:21.992Z,15.51
2023-09-26T23:43:23.329Z,15.35
2023-09-26T23:48:24.579Z,15.23
2023-09-26T23:53:25.836Z,15.09
2023-09-26T23:58:27.124Z,15.00
